sensor_id;sensor_type;location;lat;lon;timestamp;P1;durP1;ratioP1;P2;durP2;ratioP2
72949;SDS011;64868;45.710;9.590;2023-05-03T00:02:00;8.35;;;5.00;;
72949;SDS011;64868;45.710;9.590;2023-05-03T00:04:32;8.38;;;4.95;;
72949;SDS011;64868;45.710;9.590;2023-05-03T00:07:02;8.10;;;5.00;;
72949;SDS011;64868;45.710;9.590;2023-05-03T00:09:35;8.38;;;5.43;;
72949;SDS011;64868;45.710;9.590;2023-05-03T00:12:05;9.90;;;4.97;;
72949;SDS011;64868;45.710;9.590;2023-05-03T00:14:38;7.95;;;4.82;;
72949;SDS011;64868;45.710;9.590;2023-05-03T00:17:10;7.70;;;4.65;;
72949;SDS011;64868;45.710;9.590;2023-05-03T00:19:43;9.70;;;5.05;;
72949;SDS011;64868;45.710;9.590;2023-05-03T00:22:16;8.90;;;4.63;;
72949;SDS011;64868;45.710;9.590;2023-05-03T00:24:48;7.70;;;4.70;;
72949;SDS011;64868;45.710;9.590;2023-05-03T00:27:21;8.27;;;4.78;;
72949;SDS011;64868;45.710;9.590;2023-05-03T00:29:53;7.72;;;4.65;;
72949;SDS011;64868;45.710;9.590;2023-05-03T00:32:23;7.68;;;4.60;;
72949;SDS011;64868;45.710;9.590;2023-05-03T00:34:56;7.82;;;4.38;;
72949;SDS011;64868;45.710;9.590;2023-05-03T00:37:27;7.55;;;4.07;;
72949;SDS011;64868;45.710;9.590;2023-05-03T00:39:57;7.57;;;4.68;;
72949;SDS011;64868;45.710;9.590;2023-05-03T00:42:27;7.55;;;4.38;;
72949;SDS011;64868;45.710;9.590;2023-05-03T00:45:01;8.48;;;4.63;;
72949;SDS011;64868;45.710;9.590;2023-05-03T00:47:33;8.10;;;4.70;;
72949;SDS011;64868;45.710;9.590;2023-05-03T00:50:05;7.65;;;4.00;;
72949;SDS011;64868;45.710;9.590;2023-05-03T00:52:38;7.00;;;4.13;;
72949;SDS011;64868;45.710;9.590;2023-05-03T00:55:10;6.82;;;3.42;;
72949;SDS011;64868;45.710;9.590;2023-05-03T00:57:44;6.95;;;3.72;;
72949;SDS011;64868;45.710;9.590;2023-05-03T01:00:15;7.95;;;3.70;;
72949;SDS011;64868;45.710;9.590;2023-05-03T01:02:48;6.68;;;3.38;;
72949;SDS011;64868;45.710;9.590;2023-05-03T01:05:20;6.60;;;3.60;;
72949;SDS011;64868;45.710;9.590;2023-05-03T01:08:10;6.85;;;3.63;;
72949;SDS011;64868;45.710;9.590;2023-05-03T01:11:00;6.60;;;3.70;;
72949;SDS011;64868;45.710;9.590;2023-05-03T01:16:36;6.47;;;3.17;;
72949;SDS011;64868;45.710;9.590;2023-05-03T01:27:43;8.25;;;4.18;;
72949;SDS011;64868;45.710;9.590;2023-05-03T01:30:15;7.20;;;4.05;;
72949;SDS011;64868;45.710;9.590;2023-05-03T01:33:01;7.72;;;4.45;;
72949;SDS011;64868;45.710;9.590;2023-05-03T01:36:05;7.15;;;3.80;;
72949;SDS011;64868;45.710;9.590;2023-05-03T01:38:43;6.68;;;3.55;;
72949;SDS011;64868;45.710;9.590;2023-05-03T01:41:13;7.22;;;3.53;;
72949;SDS011;64868;45.710;9.590;2023-05-03T01:43:48;7.00;;;3.58;;
72949;SDS011;64868;45.710;9.590;2023-05-03T01:46:21;5.90;;;3.10;;
72949;SDS011;64868;45.710;9.590;2023-05-03T01:48:53;6.25;;;3.10;;
72949;SDS011;64868;45.710;9.590;2023-05-03T01:51:23;6.88;;;3.58;;
72949;SDS011;64868;45.710;9.590;2023-05-03T01:53:56;6.60;;;3.25;;
72949;SDS011;64868;45.710;9.590;2023-05-03T01:56:28;7.63;;;3.75;;
72949;SDS011;64868;45.710;9.590;2023-05-03T01:58:57;8.13;;;4.47;;
72949;SDS011;64868;45.710;9.590;2023-05-03T02:01:29;9.23;;;4.00;;
72949;SDS011;64868;45.710;9.590;2023-05-03T02:04:02;6.95;;;3.58;;
72949;SDS011;64868;45.710;9.590;2023-05-03T02:06:35;6.80;;;4.00;;
72949;SDS011;64868;45.710;9.590;2023-05-03T02:09:05;8.73;;;3.97;;
72949;SDS011;64868;45.710;9.590;2023-05-03T02:11:37;6.88;;;3.63;;
72949;SDS011;64868;45.710;9.590;2023-05-03T02:14:10;7.35;;;3.50;;
72949;SDS011;64868;45.710;9.590;2023-05-03T02:16:43;6.63;;;3.20;;
72949;SDS011;64868;45.710;9.590;2023-05-03T02:19:13;6.47;;;3.58;;
72949;SDS011;64868;45.710;9.590;2023-05-03T02:21:45;7.20;;;3.92;;
72949;SDS011;64868;45.710;9.590;2023-05-03T02:24:16;8.52;;;5.05;;
72949;SDS011;64868;45.710;9.590;2023-05-03T02:26:46;6.68;;;3.50;;
72949;SDS011;64868;45.710;9.590;2023-05-03T02:29:17;8.48;;;5.05;;
72949;SDS011;64868;45.710;9.590;2023-05-03T02:31:49;8.45;;;4.60;;
72949;SDS011;64868;45.710;9.590;2023-05-03T02:34:19;8.52;;;4.93;;
72949;SDS011;64868;45.710;9.590;2023-05-03T02:36:50;8.77;;;4.15;;
72949;SDS011;64868;45.710;9.590;2023-05-03T02:39:22;7.47;;;4.20;;
72949;SDS011;64868;45.710;9.590;2023-05-03T02:41:52;9.35;;;4.70;;
72949;SDS011;64868;45.710;9.590;2023-05-03T02:44:22;8.63;;;4.22;;
72949;SDS011;64868;45.710;9.590;2023-05-03T02:46:50;7.55;;;4.32;;
72949;SDS011;64868;45.710;9.590;2023-05-03T02:49:22;8.60;;;5.10;;
72949;SDS011;64868;45.710;9.590;2023-05-03T02:51:53;8.45;;;4.90;;
72949;SDS011;64868;45.710;9.590;2023-05-03T02:54:23;8.60;;;4.72;;
72949;SDS011;64868;45.710;9.590;2023-05-03T02:56:56;10.73;;;5.15;;
72949;SDS011;64868;45.710;9.590;2023-05-03T02:59:26;8.10;;;4.75;;
72949;SDS011;64868;45.710;9.590;2023-05-03T03:01:59;11.20;;;6.13;;
72949;SDS011;64868;45.710;9.590;2023-05-03T03:04:29;9.32;;;5.25;;
72949;SDS011;64868;45.710;9.590;2023-05-03T03:06:57;9.05;;;5.13;;
72949;SDS011;64868;45.710;9.590;2023-05-03T03:09:27;9.48;;;5.10;;
72949;SDS011;64868;45.710;9.590;2023-05-03T03:11:59;10.23;;;5.97;;
72949;SDS011;64868;45.710;9.590;2023-05-03T03:14:30;9.43;;;5.22;;
72949;SDS011;64868;45.710;9.590;2023-05-03T03:17:05;10.07;;;5.43;;
72949;SDS011;64868;45.710;9.590;2023-05-03T03:19:38;12.00;;;6.22;;
72949;SDS011;64868;45.710;9.590;2023-05-03T03:22:08;10.10;;;5.85;;
72949;SDS011;64868;45.710;9.590;2023-05-03T03:24:38;10.02;;;5.55;;
72949;SDS011;64868;45.710;9.590;2023-05-03T03:27:11;10.48;;;5.70;;
72949;SDS011;64868;45.710;9.590;2023-05-03T03:29:41;9.65;;;5.65;;
72949;SDS011;64868;45.710;9.590;2023-05-03T03:32:11;12.30;;;6.03;;
72949;SDS011;64868;45.710;9.590;2023-05-03T03:34:44;10.27;;;6.07;;
72949;SDS011;64868;45.710;9.590;2023-05-03T03:37:09;10.02;;;6.15;;
72949;SDS011;64868;45.710;9.590;2023-05-03T03:39:42;10.70;;;6.43;;
72949;SDS011;64868;45.710;9.590;2023-05-03T03:42:14;9.82;;;5.97;;
72949;SDS011;64868;45.710;9.590;2023-05-03T03:44:44;9.35;;;5.50;;
72949;SDS011;64868;45.710;9.590;2023-05-03T03:47:14;13.63;;;6.53;;
72949;SDS011;64868;45.710;9.590;2023-05-03T03:49:44;10.60;;;6.40;;
72949;SDS011;64868;45.710;9.590;2023-05-03T03:52:15;10.73;;;5.60;;
72949;SDS011;64868;45.710;9.590;2023-05-03T03:54:47;10.43;;;5.90;;
72949;SDS011;64868;45.710;9.590;2023-05-03T03:57:20;10.38;;;5.72;;
72949;SDS011;64868;45.710;9.590;2023-05-03T03:59:51;11.88;;;6.28;;
72949;SDS011;64868;45.710;9.590;2023-05-03T04:02:21;10.80;;;6.35;;
72949;SDS011;64868;45.710;9.590;2023-05-03T04:04:52;9.93;;;6.13;;
72949;SDS011;64868;45.710;9.590;2023-05-03T04:07:25;10.38;;;5.60;;
72949;SDS011;64868;45.710;9.590;2023-05-03T04:09:55;8.70;;;5.25;;
72949;SDS011;64868;45.710;9.590;2023-05-03T04:12:25;10.82;;;6.50;;
72949;SDS011;64868;45.710;9.590;2023-05-03T04:14:57;12.10;;;7.07;;
72949;SDS011;64868;45.710;9.590;2023-05-03T04:17:30;11.88;;;7.50;;
72949;SDS011;64868;45.710;9.590;2023-05-03T04:20:00;10.75;;;6.72;;
72949;SDS011;64868;45.710;9.590;2023-05-03T04:22:33;11.52;;;7.60;;
72949;SDS011;64868;45.710;9.590;2023-05-03T04:25:06;12.77;;;6.70;;
72949;SDS011;64868;45.710;9.590;2023-05-03T04:27:36;11.85;;;6.90;;
72949;SDS011;64868;45.710;9.590;2023-05-03T04:30:06;11.68;;;6.60;;
72949;SDS011;64868;45.710;9.590;2023-05-03T04:32:40;10.02;;;6.38;;
72949;SDS011;64868;45.710;9.590;2023-05-03T04:35:10;12.50;;;6.78;;
72949;SDS011;64868;45.710;9.590;2023-05-03T04:37:43;11.50;;;5.95;;
72949;SDS011;64868;45.710;9.590;2023-05-03T04:40:10;15.68;;;6.38;;
72949;SDS011;64868;45.710;9.590;2023-05-03T04:42:43;9.13;;;5.45;;
72949;SDS011;64868;45.710;9.590;2023-05-03T04:45:16;12.05;;;6.53;;
72949;SDS011;64868;45.710;9.590;2023-05-03T04:47:48;19.38;;;7.32;;
72949;SDS011;64868;45.710;9.590;2023-05-03T04:50:18;13.07;;;6.82;;
72949;SDS011;64868;45.710;9.590;2023-05-03T04:52:46;11.43;;;6.47;;
72949;SDS011;64868;45.710;9.590;2023-05-03T04:55:16;11.13;;;7.57;;
72949;SDS011;64868;45.710;9.590;2023-05-03T04:57:46;14.20;;;7.93;;
72949;SDS011;64868;45.710;9.590;2023-05-03T05:00:17;11.57;;;7.03;;
72949;SDS011;64868;45.710;9.590;2023-05-03T05:02:50;12.05;;;6.47;;
72949;SDS011;64868;45.710;9.590;2023-05-03T05:05:23;12.73;;;7.57;;
72949;SDS011;64868;45.710;9.590;2023-05-03T05:07:53;10.95;;;6.88;;
72949;SDS011;64868;45.710;9.590;2023-05-03T05:10:25;12.70;;;6.78;;
72949;SDS011;64868;45.710;9.590;2023-05-03T05:12:58;9.85;;;5.68;;
72949;SDS011;64868;45.710;9.590;2023-05-03T05:15:26;14.30;;;8.02;;
72949;SDS011;64868;45.710;9.590;2023-05-03T05:17:58;10.30;;;6.25;;
72949;SDS011;64868;45.710;9.590;2023-05-03T05:20:31;13.95;;;6.13;;
72949;SDS011;64868;45.710;9.590;2023-05-03T05:23:01;12.20;;;6.65;;
72949;SDS011;64868;45.710;9.590;2023-05-03T05:25:34;12.65;;;7.03;;
72949;SDS011;64868;45.710;9.590;2023-05-03T05:28:08;13.27;;;6.93;;
72949;SDS011;64868;45.710;9.590;2023-05-03T05:30:38;17.48;;;7.03;;
72949;SDS011;64868;45.710;9.590;2023-05-03T05:33:10;14.20;;;6.70;;
72949;SDS011;64868;45.710;9.590;2023-05-03T05:35:43;18.75;;;6.63;;
72949;SDS011;64868;45.710;9.590;2023-05-03T05:38:16;16.67;;;5.85;;
72949;SDS011;64868;45.710;9.590;2023-05-03T05:40:49;27.08;;;6.07;;
72949;SDS011;64868;45.710;9.590;2023-05-03T05:43:19;11.75;;;5.18;;
72949;SDS011;64868;45.710;9.590;2023-05-03T05:45:49;14.70;;;5.55;;
72949;SDS011;64868;45.710;9.590;2023-05-03T05:48:19;16.35;;;5.07;;
72949;SDS011;64868;45.710;9.590;2023-05-03T05:50:46;17.23;;;4.70;;
72949;SDS011;64868;45.710;9.590;2023-05-03T05:53:19;13.38;;;4.68;;
72949;SDS011;64868;45.710;9.590;2023-05-03T05:55:52;15.05;;;4.20;;
72949;SDS011;64868;45.710;9.590;2023-05-03T05:58:19;12.40;;;4.32;;
72949;SDS011;64868;45.710;9.590;2023-05-03T06:00:52;8.35;;;4.20;;
72949;SDS011;64868;45.710;9.590;2023-05-03T06:03:26;8.93;;;3.75;;
72949;SDS011;64868;45.710;9.590;2023-05-03T06:05:58;8.57;;;4.05;;
72949;SDS011;64868;45.710;9.590;2023-05-03T06:08:28;22.42;;;4.57;;
72949;SDS011;64868;45.710;9.590;2023-05-03T06:10:59;25.35;;;5.20;;
72949;SDS011;64868;45.710;9.590;2023-05-03T06:13:31;16.65;;;4.38;;
72949;SDS011;64868;45.710;9.590;2023-05-03T06:16:04;10.90;;;3.40;;
72949;SDS011;64868;45.710;9.590;2023-05-03T06:18:35;7.32;;;2.80;;
72949;SDS011;64868;45.710;9.590;2023-05-03T06:21:05;8.25;;;2.80;;
72949;SDS011;64868;45.710;9.590;2023-05-03T06:23:33;9.27;;;2.83;;
72949;SDS011;64868;45.710;9.590;2023-05-03T06:26:05;7.18;;;2.78;;
72949;SDS011;64868;45.710;9.590;2023-05-03T06:28:38;6.05;;;2.65;;
72949;SDS011;64868;45.710;9.590;2023-05-03T06:31:11;10.23;;;2.97;;
72949;SDS011;64868;45.710;9.590;2023-05-03T06:33:41;8.68;;;3.00;;
72949;SDS011;64868;45.710;9.590;2023-05-03T06:36:13;12.38;;;2.78;;
72949;SDS011;64868;45.710;9.590;2023-05-03T06:38:46;9.30;;;2.83;;
72949;SDS011;64868;45.710;9.590;2023-05-03T06:41:19;20.77;;;3.35;;
72949;SDS011;64868;45.710;9.590;2023-05-03T06:43:49;9.45;;;2.40;;
72949;SDS011;64868;45.710;9.590;2023-05-03T06:46:19;9.70;;;2.60;;
72949;SDS011;64868;45.710;9.590;2023-05-03T06:48:52;21.48;;;3.88;;
72949;SDS011;64868;45.710;9.590;2023-05-03T06:51:24;20.85;;;3.53;;
72949;SDS011;64868;45.710;9.590;2023-05-03T06:53:57;36.80;;;4.70;;
72949;SDS011;64868;45.710;9.590;2023-05-03T06:56:32;44.55;;;5.25;;
72949;SDS011;64868;45.710;9.590;2023-05-03T06:59:04;21.63;;;4.00;;
72949;SDS011;64868;45.710;9.590;2023-05-03T07:01:37;23.70;;;4.38;;
72949;SDS011;64868;45.710;9.590;2023-05-03T07:04:10;15.02;;;3.50;;
72949;SDS011;64868;45.710;9.590;2023-05-03T07:06:43;9.25;;;2.80;;
72949;SDS011;64868;45.710;9.590;2023-05-03T07:09:13;6.18;;;3.28;;
72949;SDS011;64868;45.710;9.590;2023-05-03T07:11:45;13.68;;;3.38;;
72949;SDS011;64868;45.710;9.590;2023-05-03T07:14:18;7.45;;;2.90;;
72949;SDS011;64868;45.710;9.590;2023-05-03T07:16:48;14.70;;;3.60;;
72949;SDS011;64868;45.710;9.590;2023-05-03T07:19:18;7.80;;;3.13;;
72949;SDS011;64868;45.710;9.590;2023-05-03T07:21:51;13.70;;;3.78;;
72949;SDS011;64868;45.710;9.590;2023-05-03T07:24:18;11.07;;;4.13;;
72949;SDS011;64868;45.710;9.590;2023-05-03T07:26:51;9.02;;;3.80;;
72949;SDS011;64868;45.710;9.590;2023-05-03T07:29:21;8.43;;;3.55;;
72949;SDS011;64868;45.710;9.590;2023-05-03T07:31:54;14.27;;;4.32;;
72949;SDS011;64868;45.710;9.590;2023-05-03T07:34:26;10.63;;;3.63;;
72949;SDS011;64868;45.710;9.590;2023-05-03T07:36:59;7.22;;;3.35;;
72949;SDS011;64868;45.710;9.590;2023-05-03T07:39:27;8.77;;;3.40;;
72949;SDS011;64868;45.710;9.590;2023-05-03T07:41:59;9.40;;;3.22;;
72949;SDS011;64868;45.710;9.590;2023-05-03T07:44:32;11.95;;;5.47;;
72949;SDS011;64868;45.710;9.590;2023-05-03T07:46:59;9.23;;;5.35;;
72949;SDS011;64868;45.710;9.590;2023-05-03T07:49:32;11.45;;;5.88;;
72949;SDS011;64868;45.710;9.590;2023-05-03T07:52:02;13.93;;;6.55;;
72949;SDS011;64868;45.710;9.590;2023-05-03T07:54:32;9.18;;;5.60;;
72949;SDS011;64868;45.710;9.590;2023-05-03T07:57:05;9.18;;;6.00;;
72949;SDS011;64868;45.710;9.590;2023-05-03T07:59:35;8.43;;;5.57;;
72949;SDS011;64868;45.710;9.590;2023-05-03T08:02:05;7.80;;;5.30;;
72949;SDS011;64868;45.710;9.590;2023-05-03T08:04:38;7.93;;;5.15;;
72949;SDS011;64868;45.710;9.590;2023-05-03T08:07:10;7.88;;;5.07;;
72949;SDS011;64868;45.710;9.590;2023-05-03T08:09:41;11.45;;;5.88;;
72949;SDS011;64868;45.710;9.590;2023-05-03T08:12:13;10.93;;;6.63;;
72949;SDS011;64868;45.710;9.590;2023-05-03T08:14:46;9.32;;;5.70;;
72949;SDS011;64868;45.710;9.590;2023-05-03T08:17:18;8.27;;;5.40;;
72949;SDS011;64868;45.710;9.590;2023-05-03T08:19:51;11.38;;;4.78;;
72949;SDS011;64868;45.710;9.590;2023-05-03T08:22:23;9.35;;;4.10;;
72949;SDS011;64868;45.710;9.590;2023-05-03T08:24:56;8.05;;;4.63;;
72949;SDS011;64868;45.710;9.590;2023-05-03T08:27:27;9.77;;;5.43;;
72949;SDS011;64868;45.710;9.590;2023-05-03T08:29:55;8.38;;;5.13;;
72949;SDS011;64868;45.710;9.590;2023-05-03T08:32:28;8.60;;;4.90;;
72949;SDS011;64868;45.710;9.590;2023-05-03T08:35:00;9.43;;;5.13;;
72949;SDS011;64868;45.710;9.590;2023-05-03T08:37:36;8.02;;;5.28;;
72949;SDS011;64868;45.710;9.590;2023-05-03T08:40:07;9.52;;;6.20;;
72949;SDS011;64868;45.710;9.590;2023-05-03T08:42:40;8.40;;;5.60;;
72949;SDS011;64868;45.710;9.590;2023-05-03T08:45:16;8.40;;;5.10;;
72949;SDS011;64868;45.710;9.590;2023-05-03T08:47:51;11.05;;;5.90;;
72949;SDS011;64868;45.710;9.590;2023-05-03T08:50:22;11.88;;;6.18;;
72949;SDS011;64868;45.710;9.590;2023-05-03T08:52:53;10.07;;;5.60;;
72949;SDS011;64868;45.710;9.590;2023-05-03T08:55:26;8.43;;;4.57;;
72949;SDS011;64868;45.710;9.590;2023-05-03T08:57:59;6.97;;;4.18;;
72949;SDS011;64868;45.710;9.590;2023-05-03T09:00:28;8.18;;;4.90;;
72949;SDS011;64868;45.710;9.590;2023-05-03T09:03:00;9.45;;;6.15;;
72949;SDS011;64868;45.710;9.590;2023-05-03T09:05:32;7.35;;;4.60;;
72949;SDS011;64868;45.710;9.590;2023-05-03T09:08:06;7.05;;;4.38;;
72949;SDS011;64868;45.710;9.590;2023-05-03T09:10:43;7.25;;;3.90;;
72949;SDS011;64868;45.710;9.590;2023-05-03T09:13:13;9.10;;;4.50;;
72949;SDS011;64868;45.710;9.590;2023-05-03T09:15:46;7.45;;;4.50;;
72949;SDS011;64868;45.710;9.590;2023-05-03T09:18:24;7.45;;;3.97;;
72949;SDS011;64868;45.710;9.590;2023-05-03T09:20:56;10.70;;;4.43;;
72949;SDS011;64868;45.710;9.590;2023-05-03T09:26:00;7.93;;;5.15;;
72949;SDS011;64868;45.710;9.590;2023-05-03T09:28:39;8.00;;;4.90;;
72949;SDS011;64868;45.710;9.590;2023-05-03T09:31:14;8.85;;;5.22;;
72949;SDS011;64868;45.710;9.590;2023-05-03T09:33:47;8.98;;;4.78;;
72949;SDS011;64868;45.710;9.590;2023-05-03T09:36:19;10.73;;;5.20;;
72949;SDS011;64868;45.710;9.590;2023-05-03T09:38:50;6.82;;;4.10;;
72949;SDS011;64868;45.710;9.590;2023-05-03T09:41:27;9.45;;;3.33;;
72949;SDS011;64868;45.710;9.590;2023-05-03T09:44:00;9.27;;;3.85;;
72949;SDS011;64868;45.710;9.590;2023-05-03T09:46:31;18.70;;;4.10;;
72949;SDS011;64868;45.710;9.590;2023-05-03T09:49:03;7.05;;;3.42;;
72949;SDS011;64868;45.710;9.590;2023-05-03T09:51:34;7.38;;;3.72;;
72949;SDS011;64868;45.710;9.590;2023-05-03T09:54:05;6.05;;;3.05;;
72949;SDS011;64868;45.710;9.590;2023-05-03T09:56:38;7.30;;;3.58;;
72949;SDS011;64868;45.710;9.590;2023-05-03T09:59:11;7.88;;;3.53;;
72949;SDS011;64868;45.710;9.590;2023-05-03T10:01:41;13.27;;;3.35;;
72949;SDS011;64868;45.710;9.590;2023-05-03T10:04:12;8.30;;;3.45;;
72949;SDS011;64868;45.710;9.590;2023-05-03T10:06:47;5.93;;;3.13;;
72949;SDS011;64868;45.710;9.590;2023-05-03T10:09:27;7.50;;;3.00;;
72949;SDS011;64868;45.710;9.590;2023-05-03T10:12:02;6.90;;;2.75;;
72949;SDS011;64868;45.710;9.590;2023-05-03T10:14:34;5.10;;;2.20;;
72949;SDS011;64868;45.710;9.590;2023-05-03T10:17:18;6.55;;;3.05;;
72949;SDS011;64868;45.710;9.590;2023-05-03T10:20:12;13.30;;;3.10;;
72949;SDS011;64868;45.710;9.590;2023-05-03T10:23:08;6.57;;;3.33;;
72949;SDS011;64868;45.710;9.590;2023-05-03T10:25:41;5.68;;;2.67;;
72949;SDS011;64868;45.710;9.590;2023-05-03T10:28:41;5.88;;;3.00;;
72949;SDS011;64868;45.710;9.590;2023-05-03T10:34:22;7.18;;;2.80;;
72949;SDS011;64868;45.710;9.590;2023-05-03T10:36:56;6.07;;;2.63;;
72949;SDS011;64868;45.710;9.590;2023-05-03T10:39:36;6.07;;;3.00;;
72949;SDS011;64868;45.710;9.590;2023-05-03T10:42:10;6.20;;;2.78;;
72949;SDS011;64868;45.710;9.590;2023-05-03T10:44:51;7.22;;;3.28;;
72949;SDS011;64868;45.710;9.590;2023-05-03T10:47:24;6.70;;;3.22;;
72949;SDS011;64868;45.710;9.590;2023-05-03T10:52:46;6.50;;;2.92;;
72949;SDS011;64868;45.710;9.590;2023-05-03T10:55:17;5.30;;;2.63;;
72949;SDS011;64868;45.710;9.590;2023-05-03T10:57:51;7.72;;;3.08;;
72949;SDS011;64868;45.710;9.590;2023-05-03T11:05:50;9.27;;;3.53;;
72949;SDS011;64868;45.710;9.590;2023-05-03T11:08:22;9.77;;;3.30;;
72949;SDS011;64868;45.710;9.590;2023-05-03T11:10:59;5.40;;;2.63;;
72949;SDS011;64868;45.710;9.590;2023-05-03T11:13:33;5.82;;;2.72;;
72949;SDS011;64868;45.710;9.590;2023-05-03T11:16:06;8.15;;;2.80;;
72949;SDS011;64868;45.710;9.590;2023-05-03T11:18:38;21.50;;;2.85;;
72949;SDS011;64868;45.710;9.590;2023-05-03T11:21:11;5.22;;;2.33;;
72949;SDS011;64868;45.710;9.590;2023-05-03T11:23:42;5.43;;;2.33;;
72949;SDS011;64868;45.710;9.590;2023-05-03T11:26:12;7.38;;;2.60;;
72949;SDS011;64868;45.710;9.590;2023-05-03T11:28:45;5.97;;;2.90;;
72949;SDS011;64868;45.710;9.590;2023-05-03T11:31:18;6.78;;;3.13;;
72949;SDS011;64868;45.710;9.590;2023-05-03T11:33:52;15.27;;;3.90;;
72949;SDS011;64868;45.710;9.590;2023-05-03T11:36:20;6.20;;;3.08;;
72949;SDS011;64868;45.710;9.590;2023-05-03T11:38:52;9.63;;;3.25;;
72949;SDS011;64868;45.710;9.590;2023-05-03T11:41:25;11.27;;;3.78;;
72949;SDS011;64868;45.710;9.590;2023-05-03T11:43:55;5.90;;;3.10;;
72949;SDS011;64868;45.710;9.590;2023-05-03T11:46:26;5.45;;;2.80;;
72949;SDS011;64868;45.710;9.590;2023-05-03T11:49:01;6.60;;;3.08;;
72949;SDS011;64868;45.710;9.590;2023-05-03T11:51:34;5.80;;;2.80;;
72949;SDS011;64868;45.710;9.590;2023-05-03T11:54:06;5.20;;;2.53;;
72949;SDS011;64868;45.710;9.590;2023-05-03T11:56:44;5.55;;;2.60;;
72949;SDS011;64868;45.710;9.590;2023-05-03T11:59:15;8.02;;;3.95;;
72949;SDS011;64868;45.710;9.590;2023-05-03T12:01:45;7.35;;;3.80;;
72949;SDS011;64868;45.710;9.590;2023-05-03T12:04:18;17.55;;;4.97;;
72949;SDS011;64868;45.710;9.590;2023-05-03T12:06:48;7.45;;;3.90;;
72949;SDS011;64868;45.710;9.590;2023-05-03T12:09:23;6.97;;;4.25;;
72949;SDS011;64868;45.710;9.590;2023-05-03T12:11:51;6.78;;;3.78;;
72949;SDS011;64868;45.710;9.590;2023-05-03T12:14:24;7.25;;;3.70;;
72949;SDS011;64868;45.710;9.590;2023-05-03T12:16:56;7.60;;;3.97;;
72949;SDS011;64868;45.710;9.590;2023-05-03T12:19:30;10.63;;;4.00;;
72949;SDS011;64868;45.710;9.590;2023-05-03T12:22:02;7.10;;;3.60;;
72949;SDS011;64868;45.710;9.590;2023-05-03T12:24:32;7.85;;;4.10;;
72949;SDS011;64868;45.710;9.590;2023-05-03T12:27:02;10.30;;;4.10;;
72949;SDS011;64868;45.710;9.590;2023-05-03T12:29:33;8.43;;;5.57;;
72949;SDS011;64868;45.710;9.590;2023-05-03T12:32:03;27.48;;;5.70;;
72949;SDS011;64868;45.710;9.590;2023-05-03T12:34:35;6.80;;;4.07;;
72949;SDS011;64868;45.710;9.590;2023-05-03T12:37:08;8.05;;;4.18;;
72949;SDS011;64868;45.710;9.590;2023-05-03T12:39:38;6.72;;;3.97;;
72949;SDS011;64868;45.710;9.590;2023-05-03T12:42:08;7.53;;;4.07;;
72949;SDS011;64868;45.710;9.590;2023-05-03T12:44:41;8.25;;;4.55;;
72949;SDS011;64868;45.710;9.590;2023-05-03T12:47:10;6.20;;;3.42;;
72949;SDS011;64868;45.710;9.590;2023-05-03T12:49:40;9.15;;;4.03;;
72949;SDS011;64868;45.710;9.590;2023-05-03T12:52:08;8.10;;;3.97;;
72949;SDS011;64868;45.710;9.590;2023-05-03T12:54:33;7.65;;;4.03;;
72949;SDS011;64868;45.710;9.590;2023-05-03T12:57:06;8.85;;;4.07;;
72949;SDS011;64868;45.710;9.590;2023-05-03T12:59:36;9.52;;;4.47;;
72949;SDS011;64868;45.710;9.590;2023-05-03T13:02:06;7.50;;;4.20;;
72949;SDS011;64868;45.710;9.590;2023-05-03T13:04:37;7.85;;;4.13;;
72949;SDS011;64868;45.710;9.590;2023-05-03T13:07:09;7.32;;;4.20;;
72949;SDS011;64868;45.710;9.590;2023-05-03T13:09:40;7.07;;;3.83;;
72949;SDS011;64868;45.710;9.590;2023-05-03T13:12:12;8.90;;;4.43;;
72949;SDS011;64868;45.710;9.590;2023-05-03T13:14:42;7.18;;;3.92;;
72949;SDS011;64868;45.710;9.590;2023-05-03T13:17:12;7.63;;;4.57;;
72949;SDS011;64868;45.710;9.590;2023-05-03T13:19:46;9.40;;;4.60;;
72949;SDS011;64868;45.710;9.590;2023-05-03T13:22:19;5.75;;;3.10;;
72949;SDS011;64868;45.710;9.590;2023-05-03T13:24:51;7.68;;;4.20;;
72949;SDS011;64868;45.710;9.590;2023-05-03T13:27:23;7.53;;;3.60;;
72949;SDS011;64868;45.710;9.590;2023-05-03T13:29:54;7.32;;;3.97;;
72949;SDS011;64868;45.710;9.590;2023-05-03T13:32:21;8.85;;;3.80;;
72949;SDS011;64868;45.710;9.590;2023-05-03T13:34:51;7.57;;;4.25;;
72949;SDS011;64868;45.710;9.590;2023-05-03T13:37:21;15.75;;;4.22;;
72949;SDS011;64868;45.710;9.590;2023-05-03T13:39:54;7.93;;;4.07;;
72949;SDS011;64868;45.710;9.590;2023-05-03T13:42:27;9.60;;;4.60;;
72949;SDS011;64868;45.710;9.590;2023-05-03T13:44:57;7.32;;;3.55;;
72949;SDS011;64868;45.710;9.590;2023-05-03T13:47:30;9.32;;;3.80;;
72949;SDS011;64868;45.710;9.590;2023-05-03T13:50:03;6.45;;;3.80;;
72949;SDS011;64868;45.710;9.590;2023-05-03T13:52:33;10.90;;;3.70;;
72949;SDS011;64868;45.710;9.590;2023-05-03T13:55:00;8.13;;;3.67;;
72949;SDS011;64868;45.710;9.590;2023-05-03T13:57:31;6.53;;;3.40;;
72949;SDS011;64868;45.710;9.590;2023-05-03T14:00:00;7.72;;;3.47;;
72949;SDS011;64868;45.710;9.590;2023-05-03T14:02:33;7.03;;;3.78;;
72949;SDS011;64868;45.710;9.590;2023-05-03T14:05:06;12.13;;;3.90;;
72949;SDS011;64868;45.710;9.590;2023-05-03T14:07:37;7.70;;;3.85;;
72949;SDS011;64868;45.710;9.590;2023-05-03T14:10:07;6.97;;;3.60;;
72949;SDS011;64868;45.710;9.590;2023-05-03T14:12:38;9.80;;;3.53;;
72949;SDS011;64868;45.710;9.590;2023-05-03T14:15:11;7.53;;;3.53;;
72949;SDS011;64868;45.710;9.590;2023-05-03T14:17:43;6.10;;;3.60;;
72949;SDS011;64868;45.710;9.590;2023-05-03T14:20:18;8.63;;;2.65;;
72949;SDS011;64868;45.710;9.590;2023-05-03T14:22:51;8.13;;;2.53;;
72949;SDS011;64868;45.710;9.590;2023-05-03T14:25:23;8.13;;;3.30;;
72949;SDS011;64868;45.710;9.590;2023-05-03T14:27:55;7.63;;;2.97;;
72949;SDS011;64868;45.710;9.590;2023-05-03T14:30:28;10.25;;;3.47;;
72949;SDS011;64868;45.710;9.590;2023-05-03T14:33:01;9.77;;;3.67;;
72949;SDS011;64868;45.710;9.590;2023-05-03T14:35:31;8.32;;;3.58;;
72949;SDS011;64868;45.710;9.590;2023-05-03T14:38:03;9.57;;;3.63;;
72949;SDS011;64868;45.710;9.590;2023-05-03T14:40:36;14.07;;;3.80;;
72949;SDS011;64868;45.710;9.590;2023-05-03T14:43:09;6.50;;;3.95;;
72949;SDS011;64868;45.710;9.590;2023-05-03T14:45:41;6.72;;;3.20;;
72949;SDS011;64868;45.710;9.590;2023-05-03T14:48:14;6.38;;;3.20;;
72949;SDS011;64868;45.710;9.590;2023-05-03T14:50:51;9.90;;;3.30;;
72949;SDS011;64868;45.710;9.590;2023-05-03T14:53:21;6.50;;;2.88;;
72949;SDS011;64868;45.710;9.590;2023-05-03T14:55:51;6.90;;;2.63;;
72949;SDS011;64868;45.710;9.590;2023-05-03T14:58:24;7.40;;;3.35;;
72949;SDS011;64868;45.710;9.590;2023-05-03T15:00:52;6.35;;;3.00;;
72949;SDS011;64868;45.710;9.590;2023-05-03T15:03:22;7.07;;;3.47;;
72949;SDS011;64868;45.710;9.590;2023-05-03T15:05:54;9.38;;;3.40;;
72949;SDS011;64868;45.710;9.590;2023-05-03T15:08:27;7.55;;;3.70;;
72949;SDS011;64868;45.710;9.590;2023-05-03T15:10:58;7.45;;;3.72;;
72949;SDS011;64868;45.710;9.590;2023-05-03T15:13:30;10.98;;;3.60;;
72949;SDS011;64868;45.710;9.590;2023-05-03T15:16:03;7.95;;;3.97;;
72949;SDS011;64868;45.710;9.590;2023-05-03T15:18:33;6.88;;;3.30;;
72949;SDS011;64868;45.710;9.590;2023-05-03T15:21:03;7.40;;;3.70;;
72949;SDS011;64868;45.710;9.590;2023-05-03T15:23:33;6.30;;;3.63;;
72949;SDS011;64868;45.710;9.590;2023-05-03T15:26:03;6.75;;;2.97;;
72949;SDS011;64868;45.710;9.590;2023-05-03T15:28:36;5.93;;;2.95;;
72949;SDS011;64868;45.710;9.590;2023-05-03T15:31:10;6.53;;;3.10;;
72949;SDS011;64868;45.710;9.590;2023-05-03T15:33:39;6.68;;;3.17;;
72949;SDS011;64868;45.710;9.590;2023-05-03T15:36:10;8.38;;;4.30;;
72949;SDS011;64868;45.710;9.590;2023-05-03T15:38:42;6.30;;;2.90;;